Sheridan, Missouri
Current Conditions -  °F | °C
As of 10:35 PM on Wednesday 22 Oct 2014 (Local Time) from KICL Reporting Station
Overcast Overcast  
Wind Chill: 61°   Ceiling: 9500
Heat Index: 61°   Visibility: 10mi
Dew Point: 50°   Wind: 12mph
Humidity: 68%   Direction: 160°SSE
Pressure: 30.08"   Gusts: 18mph
Location:  40.52°N, 94.61°W
Report Text: KICL 230335Z AUTO 16010G16KT 10SM SCT060 OVC095 16/10 A3008 RMK AO2
Loading
Personal Weather Stations






























Interactive Weather Map
Tropical Storm Tracking
New forecast layout! Learn more

10-Day Weather Forecast

Advertisements
Track Severe Weather on mobile